x

Capers Nearshore (cap 2) (41029) Weather Station

10:08am - Sat 13th Feb 2016 All times are EST. -5 hours from GMT.

  • Wind
    16mph, 22mph gusts
  • Air Temp 41°f
  • Sea Pressure 1025mb
  • Capers Nearshore (cap 2)
  • Capers Nearshore (cap 2)

More Historic Weather Station data

Upgrade to MSW Pro to gain access to the past 30 days of data for over 8000 Wavebouys and Weather Stations around the globe.

Join Pro

Comparision Forecast

View Surf forecast
   
Sat 02/13 10:08am 16 22 mph 1025mb 41f
9:08am 16 20 mph 1024.4mb 40f
8:08am 18 22 mph 1023.7mb 41f
7:08am 13 18 mph 1022.3mb 41f
6:08am 13 18 mph 1021.4mb 41f
5:08am 13 18 mph 1020.1mb 41f
4:08am 13 18 mph 1019.1mb 41f
3:08am 11 16 mph 1018.1mb 47f
2:08am 4 7 mph 1018.3mb 46f
1:08am 13 18 mph 1018.2mb 46f
12:08am 2 4 mph 1017.1mb 47f
Fri 02/12 11:08pm 4 7 mph 1017.1mb 46f
10:08pm 7 11 mph 1017.3mb 47f
9:08pm 9 16 mph 1017.1mb 48f
8:08pm 7 11 mph 1017.5mb 48f
7:08pm 9 13 mph 1017.7mb 48f
6:08pm 4 9 mph 1016.8mb 48f
5:08pm 7 11 mph 1016.7mb 48f
4:08pm 4 7 mph 1016.7mb 48f
3:08pm 4 7 mph 1016.5mb 47f
2:08pm 9 13 mph 1016.9mb 47f
1:08pm 9 13 mph 1017.5mb 48f
12:08pm 11 16 mph 1018.7mb 48f
11:08am 11 13 mph 1019.5mb 49f
10:08am 9 13 mph 1020.2mb 51f
9:08am 4 9 mph 1020.5mb 51f
8:08am 7 11 mph 1020.5mb 51f
7:08am 9 13 mph 1020.7mb 51f
6:08am 11 18 mph 1020.7mb 51f
5:08am 11 13 mph 1020.9mb 50f
4:08am 13 18 mph 1021mb 51f
3:08am 13 18 mph 1021.6mb 50f
2:08am 9 13 mph 1022.3mb 52f
1:08am 11 18 mph 1022.5mb 51f
12:08am 13 16 mph 1022.6mb 51f
Thu 02/11 11:08pm 9 11 mph 1023.3mb 51f
10:08pm 4 9 mph 1023.8mb 51f
9:08pm 4 7 mph 1023.9mb 50f
8:08pm 7 11 mph 1023.7mb 49f
7:08pm 9 11 mph 1023.1mb 49f
6:08pm 11 13 mph 1022.2mb 48f
5:08pm 11 16 mph 1022.1mb 48f
4:08pm 11 16 mph 1021.6mb 47f
3:08pm 13 16 mph 1021.3mb 46f
2:08pm 7 11 mph 1022mb 46f
1:08pm 4 9 mph 1023.1mb 44f
12:08pm 4 9 mph 1024.4mb 42f
11:08am 9 13 mph 1024.8mb 40f
10:08am 11 18 mph 1025mb 39f
9:08am 13 20 mph 1025mb 38f
8:08am 16 22 mph 1024.9mb 37f
7:08am 16 22 mph 1023.8mb 37f
6:08am 16 22 mph 1022.6mb 37f
5:08am 16 20 mph 1021.9mb 37f
4:08am 18 25 mph 1021.3mb 38f
3:08am 20 27 mph 1021.7mb 38f
2:08am 20 27 mph 1021.2mb 39f
1:08am 18 22 mph 1021.1mb 40f
12:08am 20 27 mph 1020.8mb 41f
Wed 02/10 11:08pm 20 27 mph 1020.4mb 41f
10:08pm 22 29 mph 1020.3mb 41f
9:08pm 22 31 mph 1019.5mb 41f
8:08pm 22 29 mph 1019.1mb 41f
7:08pm 20 27 mph 1018.5mb 41f
6:08pm 25 34 mph 1017.1mb 42f
5:08pm 22 31 mph 1016.5mb 43f
4:08pm 22 31 mph 1015.5mb 43f
3:08pm 25 34 mph 1015.3mb 42f
2:08pm 22 29 mph 1015mb 40f
1:08pm 22 31 mph 1015.3mb 38f
12:08pm 18 25 mph 1016.3mb 37f
11:08am 18 25 mph 1017mb 35f
10:08am 20 27 mph 1017.1mb 34f
9:08am 22 31 mph 1017.1mb 34f
8:08am 25 31 mph 1016.5mb 34f
7:08am 25 34 mph 1015.9mb 34f
6:08am 22 29 mph 1015.7mb 35f
5:08am 22 31 mph 1014.9mb 36f
4:08am 25 34 mph 1014.8mb 37f
3:08am 25 38 mph 1014.1mb 37f
2:08am 25 34 mph 1014.2mb 38f
1:08am 25 36 mph 1013.9mb 39f
12:08am 29 38 mph 1014mb 40f
Tue 02/09 11:08pm 22 29 mph 1013.7mb 41f
10:08pm 20 29 mph 1013.3mb 42f
9:08pm 18 25 mph 1012.7mb 42f
8:08pm 18 25 mph 1012.1mb 43f
7:08pm 20 25 mph 1011.6mb 44f
6:08pm 25 31 mph 1010.4mb 45f
5:08pm 25 34 mph 1009.7mb 46f